createdAt,value
2019-06-08T00:00:26.273Z,0
2019-06-08T00:01:25.767Z,0
2019-06-08T00:02:26.091Z,0
2019-06-08T00:03:25.788Z,0
2019-06-08T00:04:25.526Z,0
2019-06-08T00:05:26.228Z,0
2019-06-08T00:06:26.300Z,0
2019-06-08T00:07:25.791Z,0
2019-06-08T00:08:25.667Z,0
2019-06-08T00:09:27.111Z,0
2019-06-08T00:10:28.844Z,0
2019-06-08T00:11:26.102Z,0
2019-06-08T00:12:24.555Z,0
2019-06-08T00:13:25.870Z,0
2019-06-08T00:14:25.545Z,0
2019-06-08T00:15:25.019Z,0
2019-06-08T00:16:24.522Z,0
2019-06-08T00:17:44.283Z,0
2019-06-08T00:18:24.588Z,0
2019-06-08T00:19:24.575Z,0
2019-06-08T00:23:54.058Z,0
2019-06-08T00:24:53.656Z,0
2019-06-08T00:25:53.645Z,0
2019-06-08T00:26:53.589Z,0
2019-06-08T00:28:03.927Z,0
2019-06-08T00:28:53.618Z,0
2019-06-08T00:29:53.958Z,0
2019-06-08T00:30:53.708Z,0
2019-06-08T00:31:53.653Z,0
2019-06-08T00:32:53.732Z,0
2019-06-08T00:33:53.666Z,0
2019-06-08T00:34:53.620Z,0
2019-06-08T00:35:53.638Z,0
2019-06-08T00:36:53.673Z,0
2019-06-08T00:37:53.651Z,0
2019-06-08T00:38:53.679Z,0
2019-06-08T00:39:53.724Z,0
2019-06-08T00:40:53.653Z,0
2019-06-08T00:41:53.657Z,0
2019-06-08T00:42:53.735Z,0
2019-06-08T00:43:53.670Z,0
2019-06-08T00:44:53.679Z,0
2019-06-08T00:45:53.722Z,0
2019-06-08T00:46:53.854Z,0
2019-06-08T00:47:56.341Z,0
2019-06-08T00:48:53.682Z,0
2019-06-08T00:49:53.675Z,0
2019-06-08T00:50:53.718Z,0
2019-06-08T00:51:53.774Z,0
2019-06-08T00:52:53.738Z,0
2019-06-08T00:53:54.036Z,0
2019-06-08T00:54:53.643Z,0
2019-06-08T00:55:53.665Z,0
2019-06-08T00:56:53.806Z,0
2019-06-08T00:58:04.003Z,0
2019-06-08T00:58:53.695Z,0
2019-06-08T00:59:53.710Z,0
2019-06-08T01:00:56.752Z,0
2019-06-08T01:01:53.705Z,0
2019-06-08T01:02:53.689Z,0
2019-06-08T01:03:53.707Z,0
2019-06-08T01:09:09.726Z,0
2019-06-08T01:10:21.875Z,0
2019-06-08T01:11:22.438Z,0
2019-06-08T01:12:22.382Z,0
2019-06-08T01:13:22.884Z,0
2019-06-08T01:14:22.833Z,0
2019-06-08T01:15:32.610Z,0
2019-06-08T01:16:21.444Z,0
2019-06-08T01:17:22.982Z,0
2019-06-08T01:18:24.521Z,0
2019-06-08T01:19:23.113Z,0
2019-06-08T01:20:23.461Z,0
2019-06-08T01:21:23.219Z,0
2019-06-08T01:22:23.602Z,0
2019-06-08T01:23:23.415Z,0
2019-06-08T01:24:23.595Z,0
2019-06-08T01:25:23.675Z,0
2019-06-08T01:26:22.230Z,0
2019-06-08T01:27:22.005Z,0
2019-06-08T01:28:22.478Z,0
2019-06-08T01:29:22.164Z,0
2019-06-08T01:30:21.797Z,0
2019-06-08T01:31:22.038Z,0
2019-06-08T01:32:20.789Z,0
2019-06-08T01:33:20.773Z,0
2019-06-08T01:34:20.693Z,0
2019-06-08T01:35:20.900Z,0
2019-06-08T01:36:20.735Z,0
2019-06-08T01:37:21.121Z,0
2019-06-08T01:38:21.029Z,0
2019-06-08T01:39:21.092Z,0
2019-06-08T01:40:21.287Z,0
2019-06-08T01:41:21.306Z,0
2019-06-08T01:42:21.407Z,0
2019-06-08T01:43:21.735Z,0
2019-06-08T01:44:21.513Z,0
2019-06-08T01:45:21.659Z,0
2019-06-08T01:46:21.829Z,0
2019-06-08T01:47:22.025Z,0
2019-06-08T01:48:30.215Z,0
2019-06-08T01:49:21.834Z,0
2019-06-08T01:50:22.388Z,0
2019-06-08T01:51:20.845Z,0
2019-06-08T01:52:20.725Z,0
2019-06-08T01:53:20.814Z,0
2019-06-08T01:54:20.759Z,0
2019-06-08T01:55:20.743Z,0
2019-06-08T01:56:20.732Z,0
2019-06-08T01:57:20.739Z,0
2019-06-08T01:58:20.811Z,0
2019-06-08T01:59:20.783Z,0
2019-06-08T02:00:45.882Z,0
2019-06-08T02:01:21.103Z,0
2019-06-08T02:02:20.788Z,0
2019-06-08T02:03:20.864Z,0
2019-06-08T02:10:00.186Z,0
2019-06-08T02:11:00.132Z,0
2019-06-08T02:12:00.199Z,0
2019-06-08T02:13:00.209Z,0
2019-06-08T02:14:00.210Z,0
2019-06-08T02:15:00.199Z,0
2019-06-08T02:16:00.219Z,0
2019-06-08T02:17:00.230Z,0
2019-06-08T02:18:00.466Z,0
2019-06-08T02:19:00.194Z,0
2019-06-08T02:20:00.210Z,0
2019-06-08T02:21:00.288Z,0
2019-06-08T02:22:00.214Z,0
2019-06-08T02:23:00.219Z,0
2019-06-08T02:24:00.237Z,0
2019-06-08T02:25:00.190Z,0
2019-06-08T02:26:00.530Z,0
2019-06-08T02:27:00.182Z,0
2019-06-08T02:28:22.480Z,0
2019-06-08T02:29:00.386Z,0
2019-06-08T02:30:00.213Z,0
2019-06-08T02:31:00.221Z,0
2019-06-08T02:32:00.221Z,0
2019-06-08T02:33:00.233Z,0
2019-06-08T02:34:00.179Z,0
2019-06-08T02:35:00.228Z,0
2019-06-08T02:36:00.494Z,0
2019-06-08T02:37:00.174Z,0
2019-06-08T02:38:00.205Z,0
2019-06-08T02:39:00.193Z,0
2019-06-08T02:40:00.218Z,0
2019-06-08T02:41:00.201Z,0
2019-06-08T02:42:00.252Z,0
2019-06-08T02:43:00.213Z,0
2019-06-08T02:44:00.560Z,0
2019-06-08T02:45:00.183Z,0
2019-06-08T02:46:00.273Z,0
2019-06-08T02:47:00.221Z,0
2019-06-08T02:48:00.249Z,0
2019-06-08T02:49:11.413Z,0
2019-06-08T02:50:00.243Z,0
2019-06-08T02:51:00.255Z,0
2019-06-08T02:52:00.256Z,0
2019-06-08T02:53:00.243Z,0
2019-06-08T02:54:00.202Z,0
2019-06-08T02:55:00.273Z,0
2019-06-08T02:56:00.236Z,0
2019-06-08T02:57:00.222Z,4
2019-06-08T02:58:08.547Z,4
2019-06-08T02:59:00.219Z,4
2019-06-08T03:00:00.257Z,4
2019-06-08T03:01:00.312Z,0
2019-06-08T03:02:00.233Z,0
2019-06-08T03:03:00.262Z,0
2019-06-08T03:04:00.234Z,0
2019-06-08T03:05:00.296Z,0
2019-06-08T03:06:00.286Z,0
2019-06-08T03:07:00.250Z,0
2019-06-08T03:08:00.745Z,0
2019-06-08T03:09:00.239Z,0
2019-06-08T03:10:00.300Z,0
2019-06-08T03:11:00.298Z,4
2019-06-08T03:12:00.285Z,4
2019-06-08T03:13:00.272Z,4
2019-06-08T03:14:00.583Z,4
2019-06-08T03:15:00.303Z,0
2019-06-08T03:16:00.277Z,4
2019-06-08T03:17:00.325Z,4
2019-06-08T03:18:01.637Z,4
2019-06-08T03:19:09.660Z,4
2019-06-08T03:20:00.292Z,4
2019-06-08T03:21:00.297Z,4
2019-06-08T03:22:00.264Z,4
2019-06-08T03:23:00.319Z,4
2019-06-08T03:24:00.344Z,4
2019-06-08T03:25:00.310Z,4
2019-06-08T03:26:01.840Z,4
2019-06-08T03:27:00.336Z,4
2019-06-08T03:28:00.388Z,8
2019-06-08T03:29:00.293Z,4
2019-06-08T03:30:00.349Z,4
2019-06-08T03:31:02.607Z,4
2019-06-08T03:32:04.290Z,4
2019-06-08T03:33:04.528Z,4
2019-06-08T03:34:03.573Z,8
2019-06-08T03:35:04.627Z,8
2019-06-08T03:36:05.975Z,8
2019-06-08T03:37:04.729Z,8
2019-06-08T03:38:00.662Z,8
2019-06-08T03:39:00.318Z,8
2019-06-08T03:40:00.326Z,8
2019-06-08T03:41:00.480Z,4
2019-06-08T03:42:00.358Z,4
2019-06-08T03:43:04.630Z,8
2019-06-08T03:44:00.711Z,8
2019-06-08T03:45:00.322Z,4
2019-06-08T03:46:00.455Z,4
2019-06-08T03:47:00.359Z,4
2019-06-08T03:48:00.356Z,4
2019-06-08T03:49:00.354Z,4
2019-06-08T03:50:05.741Z,4
2019-06-08T03:51:00.337Z,4
2019-06-08T03:52:00.344Z,8
2019-06-08T03:53:00.391Z,8
2019-06-08T03:54:00.320Z,8
2019-06-08T03:55:00.388Z,8
2019-06-08T03:56:00.316Z,8
2019-06-08T03:57:00.361Z,8
2019-06-08T03:58:00.366Z,8
2019-06-08T03:59:00.360Z,8
2019-06-08T04:00:00.386Z,8
2019-06-08T04:01:00.348Z,8
2019-06-08T04:02:00.378Z,8
2019-06-08T04:03:00.349Z,8
2019-06-08T04:04:05.187Z,8
2019-06-08T04:05:00.376Z,8
2019-06-08T04:06:00.379Z,8
2019-06-08T04:07:00.356Z,12
2019-06-08T04:08:00.358Z,12
2019-06-08T04:09:00.381Z,12
2019-06-08T04:10:00.346Z,20
2019-06-08T04:11:00.354Z,24
2019-06-08T04:12:00.384Z,28
2019-06-08T04:13:00.366Z,28
2019-06-08T04:14:00.398Z,24
2019-06-08T04:15:00.343Z,24
2019-06-08T04:16:00.417Z,20
2019-06-08T04:17:00.442Z,20
2019-06-08T04:18:00.633Z,20
2019-06-08T04:19:00.350Z,16
2019-06-08T04:20:17.941Z,16
2019-06-08T04:21:00.400Z,16
2019-06-08T04:22:00.445Z,16
2019-06-08T04:23:00.350Z,12
2019-06-08T04:24:00.376Z,16
2019-06-08T04:25:00.421Z,16
2019-06-08T04:26:00.389Z,16
2019-06-08T04:27:00.418Z,16
2019-06-08T04:28:00.393Z,16
2019-06-08T04:29:00.866Z,16
2019-06-08T04:30:00.426Z,16
2019-06-08T04:31:00.406Z,16
2019-06-08T04:32:00.679Z,20
2019-06-08T04:33:00.419Z,16
2019-06-08T04:34:00.418Z,20
2019-06-08T04:35:00.377Z,20
2019-06-08T04:36:00.423Z,20
2019-06-08T04:37:00.396Z,28
2019-06-08T04:38:00.433Z,28
2019-06-08T04:39:00.442Z,32
2019-06-08T04:40:00.418Z,36
2019-06-08T04:41:00.474Z,40
2019-06-08T04:42:00.459Z,40
2019-06-08T04:43:00.445Z,32
2019-06-08T04:44:00.438Z,28
2019-06-08T04:45:00.456Z,24
2019-06-08T04:46:00.498Z,20
2019-06-08T04:47:00.465Z,20
2019-06-08T04:48:00.423Z,24
2019-06-08T04:49:00.423Z,20
2019-06-08T04:50:17.632Z,24
2019-06-08T04:51:00.436Z,24
2019-06-08T04:52:00.429Z,28
2019-06-08T04:53:00.442Z,28
2019-06-08T04:54:00.418Z,32
2019-06-08T04:55:00.518Z,32
2019-06-08T04:56:00.429Z,32
2019-06-08T04:57:00.417Z,28
2019-06-08T04:58:00.545Z,28
2019-06-08T04:59:00.508Z,28
2019-06-08T05:00:00.536Z,28
2019-06-08T05:01:00.493Z,28
2019-06-08T05:02:00.440Z,28
2019-06-08T05:03:00.473Z,32
2019-06-08T05:04:00.456Z,36
2019-06-08T05:05:00.521Z,40
2019-06-08T05:06:00.452Z,40
2019-06-08T05:07:00.502Z,44
2019-06-08T05:08:00.478Z,44
2019-06-08T05:09:00.512Z,48
2019-06-08T05:10:00.450Z,52
2019-06-08T05:11:00.525Z,48
2019-06-08T05:12:00.564Z,48
2019-06-08T05:13:00.496Z,48
2019-06-08T05:14:00.837Z,48
2019-06-08T05:15:00.584Z,52
2019-06-08T05:16:00.519Z,56
2019-06-08T05:17:00.494Z,56
2019-06-08T05:18:00.461Z,52
2019-06-08T05:19:00.589Z,48
2019-06-08T05:20:00.503Z,44
2019-06-08T05:21:00.534Z,44
2019-06-08T05:22:00.454Z,52
2019-06-08T05:23:00.514Z,60
2019-06-08T05:24:06.628Z,64
2019-06-08T05:25:00.513Z,68
2019-06-08T05:26:00.513Z,64
2019-06-08T05:27:00.522Z,64
2019-06-08T05:28:00.485Z,64
2019-06-08T05:29:00.643Z,64
2019-06-08T05:30:08.042Z,68
2019-06-08T05:31:00.549Z,72
2019-06-08T05:32:00.800Z,68
2019-06-08T05:33:00.533Z,60
2019-06-08T05:34:00.475Z,52
2019-06-08T05:35:00.536Z,40
2019-06-08T05:36:00.559Z,40
2019-06-08T05:37:00.506Z,40
2019-06-08T05:38:00.819Z,44
2019-06-08T05:39:00.664Z,48
2019-06-08T05:40:00.510Z,48
2019-06-08T05:41:00.514Z,44
2019-06-08T05:42:00.495Z,40
2019-06-08T05:43:00.632Z,36
2019-06-08T05:44:00.493Z,36
2019-06-08T05:45:00.540Z,32
2019-06-08T05:46:00.505Z,36
2019-06-08T05:47:00.529Z,36
2019-06-08T05:48:00.526Z,40
2019-06-08T05:49:00.550Z,40
2019-06-08T05:50:00.913Z,44
2019-06-08T05:51:11.330Z,44
2019-06-08T05:52:00.582Z,52
2019-06-08T05:53:00.572Z,56
2019-06-08T05:54:02.952Z,56
2019-06-08T05:55:00.646Z,52
2019-06-08T05:56:00.608Z,48
2019-06-08T05:57:00.598Z,48
2019-06-08T05:58:00.587Z,48
2019-06-08T05:59:00.579Z,44
2019-06-08T06:00:08.377Z,40
2019-06-08T06:01:04.763Z,40
2019-06-08T06:02:01.212Z,48
2019-06-08T06:03:00.565Z,48
2019-06-08T06:04:00.572Z,56
2019-06-08T06:05:01.832Z,60
2019-06-08T06:06:00.565Z,68
2019-06-08T06:07:00.569Z,76
2019-06-08T06:08:00.948Z,76
2019-06-08T06:13:18.577Z,76
2019-06-08T06:13:29.858Z,92
2019-06-08T06:14:29.563Z,92
2019-06-08T06:15:29.602Z,92
2019-06-08T06:16:29.553Z,84
2019-06-08T06:17:29.831Z,68
2019-06-08T06:18:29.940Z,60
2019-06-08T06:19:29.753Z,60
2019-06-08T06:20:29.738Z,68
2019-06-08T06:21:29.747Z,72
2019-06-08T06:22:29.670Z,72
2019-06-08T06:23:29.767Z,80
2019-06-08T06:24:29.587Z,88
2019-06-08T06:25:30.269Z,88
2019-06-08T06:26:29.679Z,84
2019-06-08T06:27:29.584Z,80
2019-06-08T06:28:39.810Z,84
2019-06-08T06:29:29.679Z,92
2019-06-08T06:30:29.582Z,96
2019-06-08T06:31:29.937Z,104
2019-06-08T06:32:29.659Z,116
2019-06-08T06:33:29.588Z,124
2019-06-08T06:34:29.647Z,124
2019-06-08T06:35:29.600Z,124
2019-06-08T06:36:29.669Z,128
2019-06-08T06:37:29.945Z,128
2019-06-08T06:38:29.613Z,120
2019-06-08T06:39:29.667Z,112
2019-06-08T06:40:29.603Z,100
2019-06-08T06:41:29.742Z,92
2019-06-08T06:42:32.707Z,88
2019-06-08T06:43:31.268Z,80
2019-06-08T06:44:29.597Z,80
2019-06-08T06:49:50.539Z,132
2019-06-08T06:51:01.651Z,140
2019-06-08T06:52:01.590Z,144
2019-06-08T06:53:01.636Z,144
2019-06-08T06:54:01.606Z,140
2019-06-08T06:55:01.740Z,144
2019-06-08T06:56:01.678Z,140
2019-06-08T06:57:02.113Z,140
2019-06-08T06:58:01.755Z,144
2019-06-08T06:59:01.632Z,156
2019-06-08T07:00:02.160Z,164
2019-06-08T07:01:01.969Z,164
2019-06-08T07:02:05.308Z,156
2019-06-08T07:03:03.878Z,152
2019-06-08T07:04:02.250Z,160
2019-06-08T07:05:02.550Z,168
2019-06-08T07:06:02.189Z,180
2019-06-08T07:07:02.820Z,192
2019-06-08T07:08:02.406Z,200
2019-06-08T07:09:02.436Z,208
2019-06-08T07:10:02.823Z,208
2019-06-08T07:11:03.012Z,212
2019-06-08T07:12:04.473Z,208
2019-06-08T07:13:02.987Z,204
2019-06-08T07:14:03.011Z,208
2019-06-08T07:15:03.280Z,220
2019-06-08T07:16:22.551Z,248
2019-06-08T07:17:01.991Z,272
2019-06-08T07:18:03.905Z,292
2019-06-08T07:19:04.378Z,316
2019-06-08T07:20:02.581Z,356
2019-06-08T07:21:03.462Z,392
2019-06-08T07:22:03.771Z,340
2019-06-08T07:23:02.275Z,340
2019-06-08T07:24:04.026Z,344
2019-06-08T07:25:04.101Z,332
2019-06-08T07:26:02.346Z,328
2019-06-08T07:27:02.405Z,332
2019-06-08T07:28:04.647Z,324
2019-06-08T07:29:04.235Z,328
2019-06-08T07:30:02.736Z,328
2019-06-08T07:31:02.980Z,324
2019-06-08T07:32:04.585Z,324
2019-06-08T07:33:02.890Z,332
2019-06-08T07:34:05.197Z,360
2019-06-08T07:35:03.134Z,380
2019-06-08T07:36:03.624Z,400
2019-06-08T07:37:05.018Z,392
2019-06-08T07:38:02.480Z,352
2019-06-08T07:39:02.281Z,336
2019-06-08T07:40:02.853Z,348
2019-06-08T07:41:06.881Z,348
2019-06-08T07:42:02.628Z,340
2019-06-08T07:43:05.946Z,324
2019-06-08T07:44:03.679Z,316
2019-06-08T07:45:05.557Z,300
2019-06-08T07:46:02.257Z,284
2019-06-08T07:47:02.758Z,264
2019-06-08T07:48:03.132Z,244
2019-06-08T07:49:03.781Z,232
2019-06-08T07:50:07.386Z,220
2019-06-08T07:51:03.563Z,216
2019-06-08T07:52:16.211Z,224
2019-06-08T07:53:02.450Z,236
2019-06-08T07:54:02.543Z,252
2019-06-08T07:55:03.771Z,268
2019-06-08T07:56:02.460Z,276
2019-06-08T07:57:02.748Z,280
2019-06-08T07:58:02.974Z,276
2019-06-08T07:59:04.228Z,260
2019-06-08T08:00:09.042Z,256
2019-06-08T08:01:12.888Z,260
2019-06-08T08:02:01.772Z,264
2019-06-08T08:03:03.457Z,280
2019-06-08T08:04:01.994Z,288
2019-06-08T08:05:04.020Z,292
2019-06-08T08:06:04.154Z,296
2019-06-08T08:07:03.921Z,300
2019-06-08T08:08:04.123Z,308
2019-06-08T08:09:04.089Z,328
2019-06-08T08:10:05.108Z,352
2019-06-08T08:11:02.406Z,360
2019-06-08T08:12:05.237Z,360
2019-06-08T08:13:02.541Z,360
2019-06-08T08:14:04.309Z,360
2019-06-08T08:15:04.604Z,352
2019-06-08T08:16:06.001Z,352
2019-06-08T08:17:02.818Z,356
2019-06-08T08:18:03.821Z,348
2019-06-08T08:19:02.892Z,344
2019-06-08T08:20:02.981Z,336
2019-06-08T08:21:26.302Z,348
2019-06-08T08:22:29.558Z,364
2019-06-08T08:23:11.924Z,372
2019-06-08T08:24:07.259Z,384
2019-06-08T08:25:10.893Z,392
2019-06-08T08:26:06.480Z,408
2019-06-08T08:27:10.966Z,428
2019-06-08T08:28:08.063Z,448
2019-06-08T08:29:08.463Z,460
2019-06-08T08:30:08.142Z,496
2019-06-08T08:31:07.760Z,564
2019-06-08T08:32:07.463Z,540
2019-06-08T08:33:10.323Z,520
2019-06-08T08:34:11.649Z,512
2019-06-08T08:35:08.562Z,508
2019-06-08T08:36:07.240Z,520
2019-06-08T08:37:11.888Z,552
2019-06-08T08:38:10.275Z,568
2019-06-08T08:39:08.139Z,592
2019-06-08T08:40:07.818Z,588
2019-06-08T08:41:13.553Z,580
2019-06-08T08:42:11.109Z,608
2019-06-08T08:43:04.962Z,644
2019-06-08T08:44:07.940Z,652
2019-06-08T08:45:11.495Z,744
2019-06-08T08:46:04.801Z,724
2019-06-08T08:47:07.592Z,728
2019-06-08T08:48:34.097Z,796
2019-06-08T08:49:18.052Z,644
2019-06-08T08:50:07.279Z,616
2019-06-08T08:51:08.524Z,652
2019-06-08T08:52:05.216Z,752
2019-06-08T08:53:07.832Z,1644
2019-06-08T08:54:11.741Z,1816
2019-06-08T08:55:05.326Z,864
2019-06-08T08:56:07.288Z,1156
2019-06-08T08:57:11.125Z,1416
2019-06-08T08:58:05.497Z,1576
2019-06-08T08:59:07.735Z,828
2019-06-08T09:00:11.229Z,900
2019-06-08T09:01:08.128Z,808
2019-06-08T09:02:08.339Z,788
2019-06-08T09:03:39.292Z,752
2019-06-08T09:04:11.501Z,704
2019-06-08T09:05:08.541Z,636
2019-06-08T09:06:11.176Z,616
2019-06-08T09:07:13.267Z,644
2019-06-08T09:08:11.287Z,680
2019-06-08T09:09:08.846Z,768
2019-06-08T09:10:08.508Z,1800
2019-06-08T09:11:08.142Z,928
2019-06-08T09:12:10.842Z,716
2019-06-08T09:13:14.335Z,920
2019-06-08T09:14:18.335Z,1164
2019-06-08T09:15:08.511Z,1748
2019-06-08T09:16:07.974Z,2028
2019-06-08T09:17:08.517Z,776
2019-06-08T09:18:10.757Z,1960
2019-06-08T09:19:08.453Z,1632
2019-06-08T09:20:15.739Z,1944
2019-06-08T09:21:08.333Z,1888
2019-06-08T09:22:08.502Z,1872
2019-06-08T09:23:24.370Z,1816
2019-06-08T09:24:10.453Z,1816
2019-06-08T09:25:13.443Z,1848
2019-06-08T09:26:17.587Z,1800
2019-06-08T09:27:10.693Z,1672
2019-06-08T09:28:08.444Z,1860
2019-06-08T09:29:13.449Z,1868
2019-06-08T09:30:08.287Z,1848
2019-06-08T09:31:08.403Z,1860
2019-06-08T09:32:08.164Z,1852
2019-06-08T09:33:07.953Z,1872
2019-06-08T09:34:22.143Z,1840
2019-06-08T09:35:09.284Z,1856
2019-06-08T09:36:08.078Z,1832
2019-06-08T09:37:10.545Z,1804
2019-06-08T09:38:08.475Z,1824
2019-06-08T09:39:15.146Z,1812
2019-06-08T09:40:06.284Z,1796
2019-06-08T09:41:08.927Z,1788
2019-06-08T09:42:08.961Z,1760
2019-06-08T09:43:18.680Z,1732
2019-06-08T09:44:13.799Z,1872
2019-06-08T09:45:11.648Z,1912
2019-06-08T09:46:09.265Z,1796
2019-06-08T09:47:17.910Z,1772
2019-06-08T09:48:11.335Z,1768
2019-06-08T09:49:14.454Z,1784
2019-06-08T09:50:09.161Z,1816
2019-06-08T09:51:09.519Z,1912
2019-06-08T09:52:11.307Z,560
2019-06-08T09:53:41.541Z,456
2019-06-08T09:54:15.750Z,468
2019-06-08T09:55:11.217Z,504
2019-06-08T09:56:12.334Z,1596
2019-06-08T09:57:10.986Z,1700
2019-06-08T09:58:14.162Z,568
2019-06-08T09:59:15.244Z,1756
2019-06-08T10:00:21.407Z,1984
2019-06-08T10:01:12.182Z,1964
2019-06-08T10:02:18.186Z,1876
2019-06-08T10:03:09.808Z,628
2019-06-08T10:04:11.076Z,568
2019-06-08T10:05:08.730Z,660
2019-06-08T10:06:14.122Z,2080
2019-06-08T10:07:08.785Z,1536
2019-06-08T10:08:09.433Z,1152
2019-06-08T10:09:05.369Z,864
2019-06-08T10:10:09.670Z,1960
2019-06-08T10:11:09.567Z,1856
2019-06-08T10:12:09.817Z,1940
2019-06-08T10:13:10.216Z,1896
2019-06-08T10:14:12.588Z,1796
2019-06-08T10:15:07.997Z,1780
2019-06-08T10:16:12.678Z,1772
2019-06-08T10:17:08.854Z,1412
2019-06-08T10:18:08.106Z,460
2019-06-08T10:19:12.669Z,1932
2019-06-08T10:20:09.929Z,460
2019-06-08T10:21:09.578Z,1892
2019-06-08T10:22:08.373Z,1880
2019-06-08T10:23:28.010Z,1756
2019-06-08T10:24:09.606Z,1708
2019-06-08T10:25:13.426Z,1684
2019-06-08T10:26:07.327Z,1716
2019-06-08T10:27:08.572Z,1704
2019-06-08T10:28:20.947Z,1656
2019-06-08T10:29:18.394Z,1668
2019-06-08T10:30:09.977Z,1552
2019-06-08T10:31:09.151Z,1616
2019-06-08T10:32:05.540Z,1820
2019-06-08T10:33:12.151Z,1904
2019-06-08T10:34:13.452Z,1936
2019-06-08T10:35:10.579Z,1228
2019-06-08T10:36:12.759Z,568
2019-06-08T10:37:18.442Z,1256
2019-06-08T10:38:14.424Z,1980
2019-06-08T10:39:13.493Z,1980
2019-06-08T10:40:10.389Z,1988
2019-06-08T10:41:23.959Z,1888
2019-06-08T10:42:10.056Z,2012
2019-06-08T10:43:09.825Z,2016
2019-06-08T10:44:05.489Z,1996
2019-06-08T10:45:15.101Z,2012
2019-06-08T10:46:18.223Z,2096
2019-06-08T10:47:11.836Z,900
2019-06-08T10:48:09.671Z,720
2019-06-08T10:49:05.869Z,684
2019-06-08T10:50:19.128Z,756
2019-06-08T10:51:11.141Z,800
2019-06-08T10:52:10.524Z,752
2019-06-08T10:53:10.834Z,1184
2019-06-08T10:54:06.974Z,2184
2019-06-08T10:55:10.293Z,1600
2019-06-08T10:56:10.076Z,2020
2019-06-08T10:57:09.989Z,672
2019-06-08T10:58:06.303Z,1332
2019-06-08T10:59:15.219Z,1572
2019-06-08T11:00:20.705Z,480
2019-06-08T11:01:13.477Z,744
2019-06-08T11:02:13.788Z,484
2019-06-08T11:03:10.617Z,472
2019-06-08T11:04:07.087Z,1700
2019-06-08T11:05:14.445Z,1512
2019-06-08T11:06:12.763Z,1592
2019-06-08T11:07:16.416Z,1612
2019-06-08T11:08:12.755Z,1232
2019-06-08T11:09:13.053Z,1632
2019-06-08T11:10:08.901Z,1112
2019-06-08T11:11:09.703Z,1636
2019-06-08T11:12:11.055Z,1572
2019-06-08T11:13:18.310Z,400
2019-06-08T11:14:12.205Z,1600
2019-06-08T11:15:09.560Z,1588
2019-06-08T11:16:12.685Z,1544
2019-06-08T11:17:04.870Z,444
2019-06-08T11:18:12.684Z,776
2019-06-08T11:19:12.870Z,1568
2019-06-08T11:20:11.728Z,1532
2019-06-08T11:21:08.168Z,1244
2019-06-08T11:22:13.992Z,1444
2019-06-08T11:23:09.759Z,1468
2019-06-08T11:24:31.653Z,1456
2019-06-08T11:25:13.249Z,1184
2019-06-08T11:26:24.364Z,1288
2019-06-08T11:27:05.563Z,1472
2019-06-08T11:28:11.736Z,1428
2019-06-08T11:29:18.719Z,1432
2019-06-08T11:30:20.361Z,1420
2019-06-08T11:31:03.832Z,1404
2019-06-08T11:32:10.830Z,984
2019-06-08T11:33:06.040Z,1268
2019-06-08T11:34:08.395Z,472
2019-06-08T11:35:03.913Z,1312
2019-06-08T11:40:23.659Z,1276
2019-06-08T11:40:37.859Z,1276
2019-06-08T11:41:36.363Z,1272
2019-06-08T11:42:38.748Z,1248
2019-06-08T11:43:38.107Z,1104
2019-06-08T11:44:38.745Z,1008
2019-06-08T11:45:37.956Z,1236
2019-06-08T11:46:38.349Z,1256
2019-06-08T11:47:41.798Z,1268
2019-06-08T11:48:39.251Z,1004
2019-06-08T11:49:36.312Z,1216
2019-06-08T11:50:39.041Z,544
2019-06-08T11:51:40.400Z,1180
2019-06-08T11:52:38.178Z,1232
2019-06-08T11:53:38.415Z,1156
2019-06-08T11:54:48.037Z,1208
2019-06-08T11:55:38.338Z,1132
2019-06-08T11:56:37.506Z,1160
2019-06-08T11:57:37.286Z,1228
2019-06-08T11:58:41.070Z,1260
2019-06-08T12:03:54.782Z,1248
2019-06-08T12:04:07.811Z,220
2019-06-08T12:09:24.093Z,236
2019-06-08T12:09:37.473Z,1188
2019-06-08T12:10:38.178Z,1176
2019-06-08T12:11:38.229Z,1112
2019-06-08T12:12:38.464Z,1112
2019-06-08T12:13:37.149Z,1164
2019-06-08T12:14:42.708Z,1176
2019-06-08T12:15:38.536Z,1168
2019-06-08T12:16:37.790Z,1172
2019-06-08T12:17:41.143Z,1172
2019-06-08T12:18:39.886Z,1172
2019-06-08T12:19:40.401Z,1188
2019-06-08T12:20:37.667Z,1188
2019-06-08T12:21:37.952Z,1180
2019-06-08T12:22:37.656Z,1176
2019-06-08T12:23:37.202Z,1164
2019-06-08T12:24:49.176Z,1128
2019-06-08T12:25:40.378Z,1144
2019-06-08T12:26:37.171Z,1148
2019-06-08T12:27:45.525Z,1164
2019-06-08T12:28:38.127Z,1160
2019-06-08T12:29:37.480Z,1160
2019-06-08T12:30:38.424Z,1152
2019-06-08T12:31:37.788Z,1124
2019-06-08T12:32:37.209Z,1124
2019-06-08T12:33:42.073Z,1124
2019-06-08T12:34:38.329Z,1116
2019-06-08T12:35:37.186Z,1124
2019-06-08T12:36:40.182Z,1136
2019-06-08T12:37:38.668Z,1124
2019-06-08T12:38:43.244Z,1108
2019-06-08T12:39:38.673Z,1088
2019-06-08T12:40:37.826Z,1052
2019-06-08T12:41:40.459Z,1092
2019-06-08T12:42:38.125Z,1092
2019-06-08T12:43:38.497Z,1088
2019-06-08T12:44:38.216Z,1088
2019-06-08T12:45:38.067Z,1084
2019-06-08T12:46:38.284Z,1080
2019-06-08T12:47:38.186Z,1084
2019-06-08T12:48:38.455Z,1076
2019-06-08T12:49:38.215Z,1080
2019-06-08T12:50:38.620Z,1076
2019-06-08T12:51:37.529Z,1072
2019-06-08T12:52:39.091Z,1064
2019-06-08T12:53:38.141Z,1060
2019-06-08T12:54:37.193Z,1068
2019-06-08T12:55:37.772Z,1064
2019-06-08T12:56:37.748Z,1052
2019-06-08T12:57:37.269Z,980
2019-06-08T12:58:38.632Z,1028
2019-06-08T12:59:38.429Z,1044
2019-06-08T13:00:37.921Z,476
2019-06-08T13:01:38.101Z,1028
2019-06-08T13:02:38.366Z,1060
2019-06-08T13:03:40.652Z,1056
2019-06-08T13:04:38.358Z,904
2019-06-08T13:05:37.929Z,1060
2019-06-08T13:06:37.760Z,1060
2019-06-08T13:07:38.519Z,1036
2019-06-08T13:08:37.343Z,1020
2019-06-08T13:09:40.704Z,1004
2019-06-08T13:10:38.143Z,988
2019-06-08T13:11:37.260Z,976
2019-06-08T13:12:40.373Z,972
2019-06-08T13:13:37.786Z,924
2019-06-08T13:14:38.481Z,956
2019-06-08T13:15:41.428Z,960
2019-06-08T13:16:38.179Z,936
2019-06-08T13:17:40.665Z,936
2019-06-08T13:18:38.469Z,928
2019-06-08T13:19:38.558Z,928
2019-06-08T13:20:38.868Z,924
2019-06-08T13:21:43.716Z,912
2019-06-08T13:22:41.657Z,872
2019-06-08T13:23:38.308Z,856
2019-06-08T13:24:37.676Z,812
2019-06-08T13:25:50.834Z,908
2019-06-08T13:26:38.938Z,924
2019-06-08T13:27:37.986Z,920
2019-06-08T13:28:38.481Z,916
2019-06-08T13:29:37.443Z,912
2019-06-08T13:30:41.657Z,816
2019-06-08T13:31:38.288Z,844
2019-06-08T13:32:38.225Z,840
2019-06-08T13:33:38.250Z,892
2019-06-08T13:34:38.752Z,896
2019-06-08T13:35:39.444Z,908
2019-06-08T13:36:39.301Z,900
2019-06-08T13:37:38.993Z,900
2019-06-08T13:38:38.024Z,736
2019-06-08T13:39:38.755Z,820
2019-06-08T13:40:40.067Z,784
2019-06-08T13:41:38.351Z,816
2019-06-08T13:42:38.270Z,1188
2019-06-08T13:43:40.183Z,1180
2019-06-08T13:44:37.786Z,1172
2019-06-08T13:45:39.372Z,1168
2019-06-08T13:46:37.956Z,1168
2019-06-08T13:47:43.032Z,1156
2019-06-08T13:48:37.659Z,1160
2019-06-08T13:49:40.310Z,1056
2019-06-08T13:50:37.378Z,1040
2019-06-08T13:51:38.268Z,1040
2019-06-08T13:52:38.243Z,1092
2019-06-08T13:53:41.003Z,1056
2019-06-08T13:54:40.850Z,1140
2019-06-08T13:56:01.910Z,1084
2019-06-08T13:56:38.586Z,1024
2019-06-08T13:57:37.886Z,1136
2019-06-08T13:58:43.450Z,1032
2019-06-08T13:59:39.065Z,1136
2019-06-08T14:00:38.417Z,1116
2019-06-08T14:01:40.486Z,1108
2019-06-08T14:02:42.379Z,1108
2019-06-08T14:03:37.392Z,1044
2019-06-08T14:04:39.613Z,1088
2019-06-08T14:05:41.372Z,484
2019-06-08T14:06:37.366Z,260
2019-06-08T14:07:43.309Z,1120
2019-06-08T14:08:41.332Z,1112
2019-06-08T14:09:41.280Z,1100
2019-06-08T14:10:38.498Z,1100
2019-06-08T14:11:37.365Z,1104
2019-06-08T14:12:41.120Z,1100
2019-06-08T14:13:43.295Z,1096
2019-06-08T14:14:42.434Z,1088
2019-06-08T14:15:37.842Z,1080
2019-06-08T14:16:38.864Z,1072
2019-06-08T14:18:57.574Z,1040
2019-06-08T14:20:01.984Z,1028
2019-06-08T14:21:02.079Z,1024
2019-06-08T14:21:57.662Z,1024
2019-06-08T14:22:58.832Z,1024
2019-06-08T14:23:58.708Z,1024
2019-06-08T14:24:57.593Z,1012
2019-06-08T14:26:05.467Z,1004
2019-06-08T14:26:58.428Z,1008
2019-06-08T14:28:00.139Z,1032
2019-06-08T14:29:01.272Z,1012
2019-06-08T14:30:00.975Z,1008
2019-06-08T14:30:59.320Z,1012
2019-06-08T14:32:00.313Z,536